Time;durP1;ratioP1;P1;durP2;ratioP2;P2;SDS_P1;SDS_P2;PMS_P1;PMS_P2;Temp;Humidity;BMP_temperature;BMP_pressure;BME280_temperature;BME280_humidity;BME280_pressure;Samples;Min_cycle;Max_cycle;Signal;HPM_P1;HPM_P2
2022/08/12 00:43:36;;;;;;;;;;;;;;;18.90;48.57;101397.78;5066170;28;20399;-79
2022/08/12 00:48:45;;;;;;;;;;;;;;;18.85;48.33;101397.16;5062615;28;19944;-79
2022/08/12 00:51:10;;;;;;;;;;;;;;;18.83;48.25;101399.00;5069100;28;20285;-79
2022/08/12 00:53:36;;;;;;;;;;;;;;;18.82;48.34;101403.41;5064476;28;19916;-79
2022/08/12 00:56:02;;;;;;;;;;;;;;;18.87;47.59;101406.69;5062457;28;20299;-79
2022/08/12 00:58:29;;;;;;;;;;;;;;;18.85;48.12;101402.41;5066697;28;19920;-79
2022/08/12 01:01:02;;;;;;;;;;;;;;;18.81;47.11;101401.69;5060141;28;19920;-79
2022/08/12 01:11:27;;;;;;;;;;;;;;;18.77;47.89;101407.19;5061523;28;19916;-79
2022/08/12 01:11:44;;;;;;;;;;;;;;;18.69;49.19;101407.50;5065042;28;20070;-79
2022/08/12 01:14:10;;;;;;;;;;;;;;;18.68;48.74;101406.66;5044124;28;20544;-79
2022/08/12 01:16:35;;;;;;;;;;;;;;;18.67;49.30;101409.34;5058764;28;20430;-79
2022/08/12 01:19:02;;;;;;;;;;;;;;;18.68;49.63;101411.06;5061837;28;20057;-79
2022/08/12 01:21:27;;;;;;;;;;;;;;;18.65;49.10;101406.81;5062441;28;19947;-79
2022/08/12 01:23:56;;;;;;;;;;;;;;;18.60;48.23;101407.94;5051922;28;19917;-76
2022/08/12 01:26:22;;;;;;;;;;;;;;;18.60;48.38;101414.03;5043722;28;19947;-76
2022/08/12 01:28:48;;;;;;;;;;;;;;;18.59;48.73;101408.84;5058147;28;19932;-76
2022/08/12 01:31:15;;;;;;;;;;;;;;;18.54;48.87;101416.09;5064908;28;19940;-76
2022/08/12 01:33:52;;;;;;;;;;;;;;;18.54;49.28;101413.47;5060317;28;19939;-76
2022/08/12 01:36:21;;;;;;;;;;;;;;;18.52;48.86;101413.53;5054557;28;19919;-76
2022/08/12 01:38:48;;;;;;;;;;;;;;;18.49;48.77;101408.38;5051274;28;20396;-76
2022/08/12 01:41:15;;;;;;;;;;;;;;;18.47;49.19;101409.38;5048313;28;19921;-76
2022/08/12 01:43:42;;;;;;;;;;;;;;;18.50;49.06;101411.88;5061109;28;19924;-76
2022/08/12 01:46:07;;;;;;;;;;;;;;;18.46;49.21;101405.88;5053482;28;20058;-76
2022/08/12 01:48:51;;;;;;;;;;;;;;;18.45;49.03;101408.56;5058854;28;20005;-76
2022/08/12 01:51:39;;;;;;;;;;;;;;;18.45;49.47;101401.53;5067165;28;19919;-76
2022/08/12 01:54:08;;;;;;;;;;;;;;;18.47;49.61;101399.72;5061408;28;19920;-76
2022/08/12 01:56:49;;;;;;;;;;;;;;;18.45;50.05;101398.06;5057599;28;19928;-76
2022/08/12 02:02:02;;;;;;;;;;;;;;;18.43;50.35;101392.84;5055507;28;19963;-75
2022/08/12 02:13:32;;;;;;;;;;;;;;;18.31;51.10;101400.41;5059823;28;19946;-76
2022/08/12 02:16:01;;;;;;;;;;;;;;;18.26;51.30;101407.63;5051458;28;19920;-76
2022/08/12 02:18:44;;;;;;;;;;;;;;;18.25;51.62;101406.78;5060358;28;19921;-76
2022/08/12 02:21:15;;;;;;;;;;;;;;;18.28;51.39;101414.53;5061266;28;19920;-76
2022/08/12 02:23:41;;;;;;;;;;;;;;;18.25;51.90;101412.03;5061035;28;19952;-76
2022/08/12 02:26:08;;;;;;;;;;;;;;;18.24;51.71;101412.97;5057479;28;20431;-76
2022/08/12 02:28:33;;;;;;;;;;;;;;;18.21;51.73;101405.22;5058889;28;19991;-76
2022/08/12 02:31:03;;;;;;;;;;;;;;;18.24;51.59;101410.34;5069832;28;20381;-76
2022/08/12 02:33:29;;;;;;;;;;;;;;;18.25;51.93;101417.28;5055081;28;19927;-76
2022/08/12 02:35:55;;;;;;;;;;;;;;;18.24;51.53;101414.75;5070672;28;19974;-76
2022/08/12 02:38:22;;;;;;;;;;;;;;;18.16;51.92;101409.78;5067902;28;19920;-76
2022/08/12 02:40:50;;;;;;;;;;;;;;;18.20;51.89;101416.66;5067184;28;19990;-76
2022/08/12 02:43:29;;;;;;;;;;;;;;;18.15;51.94;101411.56;5070643;28;19920;-76
2022/08/12 02:46:03;;;;;;;;;;;;;;;18.21;51.85;101410.47;5035369;28;20447;-76
2022/08/12 02:48:47;;;;;;;;;;;;;;;18.16;52.17;101410.66;5061370;28;19999;-76
2022/08/12 02:51:18;;;;;;;;;;;;;;;18.18;51.39;101412.38;5075510;28;19923;-76
2022/08/12 02:53:43;;;;;;;;;;;;;;;18.15;51.59;101416.00;5058467;28;19997;-76
2022/08/12 02:56:11;;;;;;;;;;;;;;;18.17;51.60;101414.16;5063341;28;19967;-76
2022/08/12 02:58:37;;;;;;;;;;;;;;;18.15;51.56;101411.56;5055948;28;19978;-76
2022/08/12 03:01:04;;;;;;;;;;;;;;;18.09;51.37;101416.25;5062843;28;19920;-76
2022/08/12 03:03:31;;;;;;;;;;;;;;;18.11;51.58;101410.00;5067055;28;19946;-76
2022/08/12 03:06:00;;;;;;;;;;;;;;;18.08;51.84;101404.88;5044729;28;19967;-75
2022/08/12 03:08:29;;;;;;;;;;;;;;;18.05;52.04;101410.25;5058001;28;19927;-76
2022/08/12 03:10:58;;;;;;;;;;;;;;;18.09;51.47;101414.44;5063406;28;19973;-76
2022/08/12 03:13:25;;;;;;;;;;;;;;;18.10;51.35;101408.28;5068136;28;19921;-76
2022/08/12 03:15:52;;;;;;;;;;;;;;;18.05;51.17;101407.63;5058745;28;19928;-76
2022/08/12 03:18:31;;;;;;;;;;;;;;;18.07;50.76;101405.78;5059090;28;20301;-76
2022/08/12 03:20:57;;;;;;;;;;;;;;;18.01;50.63;101399.91;5059367;28;20448;-76
2022/08/12 03:23:23;;;;;;;;;;;;;;;18.06;50.59;101409.34;5067709;28;19923;-76
2022/08/12 03:25:50;;;;;;;;;;;;;;;18.04;50.73;101405.91;5058210;28;20011;-76
2022/08/12 03:28:49;;;;;;;;;;;;;;;18.03;51.65;101408.63;5059039;28;20374;-76
2022/08/12 03:31:03;;;;;;;;;;;;;;;17.99;51.32;101396.50;5061135;28;19932;-76
2022/08/12 03:33:33;;;;;;;;;;;;;;;17.98;51.50;101400.91;5069309;28;19916;-76
2022/08/12 03:36:00;;;;;;;;;;;;;;;17.89;51.54;101406.53;5046482;28;19963;-76
2022/08/12 03:38:28;;;;;;;;;;;;;;;17.92;51.56;101406.41;5078882;28;20019;-76
2022/08/12 04:00:27;;;;;;;;;;;;;;;17.82;51.38;101425.25;5060555;28;20404;-76
2022/08/12 04:03:50;;;;;;;;;;;;;;;17.78;51.46;101421.91;5062446;28;20009;-76
2022/08/12 04:05:48;;;;;;;;;;;;;;;17.80;51.95;101421.84;5065679;28;19928;-76
2022/08/12 04:08:13;;;;;;;;;;;;;;;17.77;52.04;101419.34;5073395;28;19924;-76
2022/08/12 04:13:30;;;;;;;;;;;;;;;17.77;52.52;101421.97;5034493;28;20003;-76
2022/08/12 04:15:56;;;;;;;;;;;;;;;17.77;52.52;101422.81;5060472;28;20437;-76
2022/08/12 04:18:22;;;;;;;;;;;;;;;17.76;52.56;101418.50;5066870;28;19917;-76
2022/08/12 04:20:48;;;;;;;;;;;;;;;17.82;52.17;101427.91;5064170;28;19928;-76
2022/08/12 04:23:14;;;;;;;;;;;;;;;17.81;52.13;101419.16;5048180;28;19951;-76
2022/08/12 04:25:40;;;;;;;;;;;;;;;17.76;52.04;101436.03;5065433;28;19986;-76
2022/08/12 04:28:06;;;;;;;;;;;;;;;17.73;52.07;101426.50;5063145;28;19921;-76
2022/08/12 04:30:32;;;;;;;;;;;;;;;17.69;51.55;101424.03;5066034;28;19935;-76
2022/08/12 04:32:57;;;;;;;;;;;;;;;17.68;51.19;101423.19;5067101;28;19924;-76
2022/08/12 04:35:23;;;;;;;;;;;;;;;17.75;51.55;101419.41;5068773;28;19920;-76
2022/08/12 04:37:55;;;;;;;;;;;;;;;17.75;51.85;101418.53;5069122;28;19920;-76
2022/08/12 04:40:24;;;;;;;;;;;;;;;17.69;52.08;101424.03;5047792;28;19929;-76
2022/08/12 04:42:52;;;;;;;;;;;;;;;17.75;51.70;101427.28;5066920;28;20457;-76
2022/08/12 04:45:18;;;;;;;;;;;;;;;17.74;51.38;101422.94;5065855;28;19976;-75
2022/08/12 04:47:44;;;;;;;;;;;;;;;17.74;51.21;101422.94;5064515;28;19925;-76
2022/08/12 04:50:13;;;;;;;;;;;;;;;17.74;51.48;101422.09;5059379;28;19973;-75
2022/08/12 04:52:39;;;;;;;;;;;;;;;17.68;51.61;101423.19;5060677;28;19936;-76
2022/08/12 04:55:05;;;;;;;;;;;;;;;17.74;51.97;101424.72;5058448;28;19924;-76
2022/08/12 04:57:30;;;;;;;;;;;;;;;17.77;51.68;101422.81;5066101;28;19924;-76
2022/08/12 04:59:55;;;;;;;;;;;;;;;17.80;52.03;101422.69;5050018;28;20018;-76
2022/08/12 05:02:21;;;;;;;;;;;;;;;17.77;51.81;101428.06;5063807;28;19928;-76
2022/08/12 05:04:47;;;;;;;;;;;;;;;17.78;51.52;101435.03;5063562;28;19939;-76
2022/08/12 05:07:13;;;;;;;;;;;;;;;17.82;51.79;101433.16;5051989;28;19960;-76
2022/08/12 05:09:38;;;;;;;;;;;;;;;17.84;51.65;101431.31;5058316;28;19960;-76
2022/08/12 05:12:04;;;;;;;;;;;;;;;17.88;51.66;101430.28;5062520;28;20429;-76
2022/08/12 05:14:30;;;;;;;;;;;;;;;17.84;51.80;101423.41;5057050;28;20436;-76
2022/08/12 05:16:55;;;;;;;;;;;;;;;17.86;52.40;101421.56;5060288;28;20346;-76
2022/08/12 05:19:20;;;;;;;;;;;;;;;17.87;51.53;101425.94;5056934;28;20621;-76
2022/08/12 05:21:46;;;;;;;;;;;;;;;17.91;50.88;101417.88;5060063;28;19925;-76
2022/08/12 05:24:11;;;;;;;;;;;;;;;17.96;50.73;101413.28;5057467;28;19921;-76
2022/08/12 05:26:36;;;;;;;;;;;;;;;18.02;50.56;101414.78;5060215;28;20292;-76
2022/08/12 05:29:02;;;;;;;;;;;;;;;18.03;50.56;101419.13;5064174;28;20039;-76
2022/08/12 05:31:27;;;;;;;;;;;;;;;18.01;51.66;101416.56;5046833;28;19920;-76
2022/08/12 05:33:53;;;;;;;;;;;;;;;18.04;51.49;101416.44;5061370;28;20436;-76
2022/08/12 05:36:18;;;;;;;;;;;;;;;18.04;51.24;101416.44;5054994;28;21330;-76
2022/08/12 05:38:56;;;;;;;;;;;;;;;18.04;51.60;101426.09;5055389;28;19999;-76
2022/08/12 05:41:25;;;;;;;;;;;;;;;18.06;52.39;101429.53;5057269;28;19975;-76
2022/08/12 05:43:52;;;;;;;;;;;;;;;18.07;52.53;101429.44;5055560;28;19928;-76
2022/08/12 05:46:18;;;;;;;;;;;;;;;18.09;52.08;101424.13;5057364;28;19925;-76
2022/08/12 05:48:44;;;;;;;;;;;;;;;18.10;51.20;101426.69;5055701;28;19935;-76
2022/08/12 05:51:12;;;;;;;;;;;;;;;18.15;51.31;101423.88;5061955;28;19912;-76
2022/08/12 05:53:38;;;;;;;;;;;;;;;18.24;51.58;101422.63;5060521;28;19932;-76
2022/08/12 05:56:04;;;;;;;;;;;;;;;18.22;51.65;101421.81;5065672;28;20368;-76
2022/08/12 05:58:29;;;;;;;;;;;;;;;18.24;51.77;101422.63;5050505;28;20293;-76
2022/08/12 06:00:55;;;;;;;;;;;;;;;18.24;50.88;101427.91;5055877;28;19917;-76
2022/08/12 06:03:21;;;;;;;;;;;;;;;18.29;49.96;101421.53;5057215;28;19916;-76
2022/08/12 06:05:48;;;;;;;;;;;;;;;18.32;51.02;101424.03;5057269;28;20394;-76
2022/08/12 06:08:14;;;;;;;;;;;;;;;18.34;51.38;101429.19;5043083;28;19917;-76
2022/08/12 06:10:40;;;;;;;;;;;;;;;18.34;50.44;101424.78;5064353;28;19921;-76
2022/08/12 06:13:06;;;;;;;;;;;;;;;18.40;49.04;101421.03;5053585;28;19924;-76
2022/08/12 06:15:31;;;;;;;;;;;;;;;18.41;49.22;101423.63;5058512;28;19917;-77
2022/08/12 06:18:04;;;;;;;;;;;;;;;18.44;49.50;101423.50;5065526;28;20018;-76
2022/08/12 06:20:30;;;;;;;;;;;;;;;18.45;50.00;101413.84;5063312;28;20461;-76
2022/08/12 06:22:55;;;;;;;;;;;;;;;18.45;50.60;101425.22;5057902;28;19925;-76
2022/08/12 06:25:20;;;;;;;;;;;;;;;18.51;50.82;101422.31;5052701;28;20020;-76
2022/08/12 06:27:47;;;;;;;;;;;;;;;18.52;49.49;101417.91;5055959;28;19917;-76
2022/08/12 06:30:14;;;;;;;;;;;;;;;18.56;49.25;101420.38;5066146;28;20348;-76
2022/08/12 06:32:42;;;;;;;;;;;;;;;18.59;48.21;101424.63;5036583;28;19920;-76
2022/08/12 06:35:08;;;;;;;;;;;;;;;18.62;47.98;101425.38;5053962;28;19928;-76
2022/08/12 06:37:40;;;;;;;;;;;;;;;18.68;47.70;101429.50;5052831;28;20415;-76
2022/08/12 06:40:07;;;;;;;;;;;;;;;18.68;46.96;101427.72;5057920;28;19931;-76
2022/08/12 06:42:47;;;;;;;;;;;;;;;18.74;46.64;101428.38;5057318;28;19943;-77
2022/08/12 06:45:17;;;;;;;;;;;;;;;18.79;46.73;101429.00;5067157;28;19928;-76
2022/08/12 06:47:42;;;;;;;;;;;;;;;18.76;48.49;101431.78;5046837;28;19921;-76
2022/08/12 06:50:08;;;;;;;;;;;;;;;18.75;48.33;101430.09;5062904;28;19923;-76
2022/08/12 06:52:33;;;;;;;;;;;;;;;18.80;47.05;101431.59;5067855;28;19971;-76
2022/08/12 06:54:59;;;;;;;;;;;;;;;18.80;47.11;101428.97;5064452;28;20013;-76
2022/08/12 06:57:28;;;;;;;;;;;;;;;18.83;46.92;101435.84;5066692;28;19967;-76
2022/08/12 06:59:54;;;;;;;;;;;;;;;18.82;47.19;101432.38;5051058;28;19970;-76
2022/08/12 07:02:21;;;;;;;;;;;;;;;18.83;48.35;101435.84;5060626;28;20015;-77
2022/08/12 07:04:46;;;;;;;;;;;;;;;18.82;47.72;101435.00;5071977;28;20308;-76
2022/08/12 07:07:12;;;;;;;;;;;;;;;18.86;46.73;101431.31;5065367;28;19920;-76
2022/08/12 07:09:38;;;;;;;;;;;;;;;18.88;47.20;101425.97;5065198;28;19916;-76
2022/08/12 07:12:04;;;;;;;;;;;;;;;18.88;50.49;101434.72;5052510;28;20391;-76
2022/08/12 07:14:29;;;;;;;;;;;;;;;18.93;49.03;101429.25;5062468;28;19916;-76
2022/08/12 07:16:56;;;;;;;;;;;;;;;18.94;48.63;101430.97;5058696;28;19931;-76
2022/08/12 07:19:21;;;;;;;;;;;;;;;18.96;48.24;101429.97;5073879;28;19916;-76
2022/08/12 07:21:48;;;;;;;;;;;;;;;18.97;48.13;101434.31;5061911;28;19970;-76
2022/08/12 07:24:13;;;;;;;;;;;;;;;19.01;54.08;101438.53;5060067;28;19917;-76
2022/08/12 07:26:40;;;;;;;;;;;;;;;19.02;49.27;101431.47;5059497;28;20389;-76
2022/08/12 07:29:08;;;;;;;;;;;;;;;19.03;52.27;101433.19;5065352;28;20307;-76
2022/08/12 07:31:35;;;;;;;;;;;;;;;19.07;48.38;101425.09;5064512;28;20369;-76
2022/08/12 07:34:00;;;;;;;;;;;;;;;19.09;48.92;101425.84;5064719;28;20300;-76
2022/08/12 07:36:26;;;;;;;;;;;;;;;19.08;57.03;101431.19;5041507;28;20288;-77
2022/08/12 07:38:51;;;;;;;;;;;;;;;19.05;51.81;101423.41;5052080;28;19912;-76
2022/08/12 07:41:18;;;;;;;;;;;;;;;19.07;50.76;101419.81;5070457;28;19920;-76
2022/08/12 07:43:47;;;;;;;;;;;;;;;19.21;49.35;101427.06;5067280;28;19920;-76
2022/08/12 07:46:14;;;;;;;;;;;;;;;19.19;52.18;101434.19;5066492;28;19924;-76
2022/08/12 07:48:41;;;;;;;;;;;;;;;19.24;47.48;101427.78;5062764;28;19920;-76
2022/08/12 07:51:07;;;;;;;;;;;;;;;19.23;49.34;101431.34;5061083;28;19966;-76
2022/08/12 07:53:34;;;;;;;;;;;;;;;19.29;47.53;101424.09;5060327;28;19920;-78
2022/08/12 07:55:59;;;;;;;;;;;;;;;19.42;46.49;101426.09;5066582;28;20465;-79
2022/08/12 07:58:25;;;;;;;;;;;;;;;19.46;46.00;101430.28;5069965;28;19921;-79
2022/08/12 08:00:52;;;;;;;;;;;;;;;19.36;48.88;101434.28;5059185;28;19916;-78
2022/08/12 08:03:17;;;;;;;;;;;;;;;19.38;46.51;101432.44;5061636;28;20099;-79
2022/08/12 08:05:45;;;;;;;;;;;;;;;19.37;53.23;101440.44;5063861;28;19931;-79
2022/08/12 08:08:24;;;;;;;;;;;;;;;19.32;47.36;101432.72;5067598;28;19920;-79
2022/08/12 08:10:51;;;;;;;;;;;;;;;19.39;46.50;101434.16;5060209;28;19920;-79
2022/08/12 08:13:17;;;;;;;;;;;;;;;19.46;47.88;101438.19;5069146;28;19920;-79
2022/08/12 08:15:45;;;;;;;;;;;;;;;19.52;44.93;101437.06;5063539;28;19916;-79
2022/08/12 08:18:11;;;;;;;;;;;;;;;19.51;50.40;101448.53;5060181;28;20428;-79
2022/08/12 08:20:39;;;;;;;;;;;;;;;19.48;48.57;101443.41;5065779;28;19925;-79
2022/08/12 08:23:07;;;;;;;;;;;;;;;19.30;49.51;101439.00;5060398;28;20003;-79
2022/08/12 08:25:33;;;;;;;;;;;;;;;19.53;46.41;101438.75;5065792;28;19920;-79
2022/08/12 08:27:59;;;;;;;;;;;;;;;19.37;56.54;101443.06;5060587;28;20001;-79
2022/08/12 08:30:25;;;;;;;;;;;;;;;19.28;56.01;101441.72;5072185;28;19995;-79
2022/08/12 08:32:51;;;;;;;;;;;;;;;19.29;58.19;101443.41;5050829;28;19921;-79
2022/08/12 08:35:16;;;;;;;;;;;;;;;19.46;47.22;101429.47;5066562;28;19921;-79
2022/08/12 08:37:45;;;;;;;;;;;;;;;19.27;58.03;101434.69;5056360;28;19924;-79
2022/08/12 08:43:03;;;;;;;;;;;;;;;19.52;45.94;101437.91;5053113;28;19925;-79
2022/08/12 08:45:29;;;;;;;;;;;;;;;19.39;48.98;101436.78;5064511;28;20019;-78
2022/08/12 08:47:54;;;;;;;;;;;;;;;19.42;55.08;101433.16;5067689;28;19999;-78
2022/08/12 08:50:19;;;;;;;;;;;;;;;19.36;49.78;101429.03;5059351;28;19921;-78
2022/08/12 08:52:46;;;;;;;;;;;;;;;19.57;53.76;101438.56;5062777;28;19981;-78
2022/08/12 08:55:12;;;;;;;;;;;;;;;19.44;49.15;101431.28;5055295;28;19928;-78
2022/08/12 08:57:48;;;;;;;;;;;;;;;19.45;52.42;101433.00;5076007;28;20331;-78
2022/08/12 09:00:14;;;;;;;;;;;;;;;19.34;53.56;101430.88;5060923;28;19916;-78
2022/08/12 09:02:40;;;;;;;;;;;;;;;19.31;57.80;101431.03;5066799;28;19917;-78
2022/08/12 09:05:05;;;;;;;;;;;;;;;19.26;59.24;101427.69;5057450;28;20450;-78
2022/08/12 09:07:30;;;;;;;;;;;;;;;19.26;59.66;101422.44;5057814;28;20405;-77
2022/08/12 09:09:56;;;;;;;;;;;;;;;19.69;47.90;101413.38;5062012;28;19928;-77
2022/08/12 09:15:06;;;;;;;;;;;;;;;19.28;59.51;101412.75;5060710;28;19969;-77
2022/08/12 09:17:33;;;;;;;;;;;;;;;19.54;47.69;101403.59;5052272;28;20270;-77
2022/08/12 09:19:58;;;;;;;;;;;;;;;19.78;54.30;101415.56;5040732;28;19925;-77
2022/08/12 09:22:24;;;;;;;;;;;;;;;19.54;55.25;101414.97;5057662;28;19978;-77
2022/08/12 09:24:51;;;;;;;;;;;;;;;19.52;57.66;101410.72;5062797;28;19924;-77
2022/08/12 09:27:17;;;;;;;;;;;;;;;19.69;48.58;101405.47;5057612;28;20003;-77
2022/08/12 09:29:42;;;;;;;;;;;;;;;20.15;42.91;101402.28;5054980;28;20011;-77
2022/08/12 09:32:08;;;;;;;;;;;;;;;20.45;41.07;101406.91;5063993;28;19916;-77
2022/08/12 09:34:35;;;;;;;;;;;;;;;20.19;42.76;101405.63;5060504;28;19936;-77
2022/08/12 09:37:01;;;;;;;;;;;;;;;20.52;40.48;101400.41;5058074;28;19927;-77
2022/08/12 09:39:26;;;;;;;;;;;;;;;20.07;46.05;101408.84;5065161;28;19923;-77
2022/08/12 09:45:21;;;;;;;;;;;;;;;19.80;56.38;101418.97;5053648;28;19916;-77
2022/08/12 09:47:27;;;;;;;;;;;;;;;19.54;56.46;101403.59;5054119;28;19974;-77
2022/08/12 09:49:53;;;;;;;;;;;;;;;20.00;47.92;101388.97;5058806;28;19921;-77
2022/08/12 09:52:18;;;;;;;;;;;;;;;19.76;55.55;101388.41;5057619;28;19943;-77
2022/08/12 09:54:43;;;;;;;;;;;;;;;19.75;47.69;101384.97;5053594;28;20358;-77
2022/08/12 09:57:10;;;;;;;;;;;;;;;20.21;41.28;101375.59;5060197;28;19916;-77
2022/08/12 09:59:36;;;;;;;;;;;;;;;19.97;49.83;101384.72;5057383;28;20388;-77
2022/08/12 10:02:01;;;;;;;;;;;;;;;19.74;49.00;101377.97;5050134;28;19920;-77
2022/08/12 10:04:26;;;;;;;;;;;;;;;20.32;44.57;101372.44;5053576;28;20289;-77
2022/08/12 10:06:52;;;;;;;;;;;;;;;20.28;45.39;101368.22;5064687;28;19936;-77
2022/08/12 10:09:17;;;;;;;;;;;;;;;20.66;40.21;101368.84;5070535;28;19925;-77
2022/08/12 10:14:26;;;;;;;;;;;;;;;19.98;54.46;101361.84;5057245;28;19926;-77
2022/08/12 10:16:53;;;;;;;;;;;;;;;20.44;40.85;101348.00;5054457;28;20035;-77
2022/08/12 10:19:19;;;;;;;;;;;;;;;20.41;46.42;101352.63;5043166;28;19926;-77
2022/08/12 10:21:45;;;;;;;;;;;;;;;20.15;46.84;101351.31;5059475;28;19928;-77
2022/08/12 10:24:14;;;;;;;;;;;;;;;20.44;41.27;101347.19;5047980;28;20002;-77
2022/08/12 10:29:41;;;;;;;;;;;;;;;20.84;44.77;101345.00;5053115;28;19927;-77
2022/08/12 10:32:08;;;;;;;;;;;;;;;19.99;54.90;101350.38;5052079;28;19924;-77
2022/08/12 10:34:33;;;;;;;;;;;;;;;19.83;54.94;101352.91;5054337;28;19921;-77
2022/08/12 10:37:02;;;;;;;;;;;;;;;20.16;43.35;101340.69;5046461;28;21625;-77
2022/08/12 10:39:33;;;;;;;;;;;;;;;20.77;37.48;101338.28;5057495;28;19978;-77
2022/08/12 10:44:45;;;;;;;;;;;;;;;20.43;48.59;101345.47;5056153;28;20561;-78
2022/08/12 10:47:10;;;;;;;;;;;;;;;20.65;50.09;101333.66;5058231;28;19920;-77
2022/08/12 10:49:36;;;;;;;;;;;;;;;20.75;40.49;101326.97;5060481;28;19926;-77
2022/08/12 10:52:02;;;;;;;;;;;;;;;20.97;34.81;101313.47;5059051;28;19920;-77
2022/08/12 10:54:27;;;;;;;;;;;;;;;20.08;53.07;101327.06;5036297;28;20028;-77
2022/08/12 10:56:54;;;;;;;;;;;;;;;20.56;38.30;101307.75;5054784;28;19931;-77
2022/08/12 10:59:20;;;;;;;;;;;;;;;20.00;51.95;101318.63;5062646;28;19960;-78
2022/08/12 11:01:49;;;;;;;;;;;;;;;20.30;47.82;101314.44;5057598;28;19972;-77
2022/08/12 11:04:15;;;;;;;;;;;;;;;20.73;38.92;101310.38;5067000;28;19927;-77
2022/08/12 11:06:46;;;;;;;;;;;;;;;21.13;35.53;101305.53;5065283;28;20309;-77
2022/08/12 11:09:31;;;;;;;;;;;;;;;20.21;51.44;101319.34;5067027;28;19916;-77
2022/08/12 11:12:06;;;;;;;;;;;;;;;19.97;53.98;101310.88;5056491;28;19956;-77
2022/08/12 11:14:35;;;;;;;;;;;;;;;20.16;53.30;101298.50;5040572;28;20444;-77
2022/08/12 11:17:06;;;;;;;;;;;;;;;19.87;55.18;101299.13;5068079;28;20473;-77
2022/08/12 11:19:32;;;;;;;;;;;;;;;20.21;43.42;101287.69;5065287;28;19936;-77
2022/08/12 11:21:57;;;;;;;;;;;;;;;20.37;46.40;101282.44;5030249;28;19956;-77
2022/08/12 11:24:23;;;;;;;;;;;;;;;20.16;53.20;101295.84;5062500;28;19998;-77
2022/08/12 11:26:49;;;;;;;;;;;;;;;20.12;52.07;101289.03;5060167;28;19928;-77
2022/08/12 11:29:15;;;;;;;;;;;;;;;19.83;56.37;101288.78;5064407;28;19920;-77
2022/08/12 11:31:40;;;;;;;;;;;;;;;19.79;57.06;101280.19;5068834;28;19929;-76
2022/08/12 11:34:06;;;;;;;;;;;;;;;19.65;58.46;101274.75;5063251;28;20007;-77
2022/08/12 11:36:31;;;;;;;;;;;;;;;20.08;54.86;101278.72;5046534;28;20292;-77
2022/08/12 11:38:57;;;;;;;;;;;;;;;20.68;37.71;101256.94;5041437;28;19952;-77
2022/08/12 11:41:22;;;;;;;;;;;;;;;20.96;37.08;101264.22;5058702;28;19928;-77
2022/08/12 11:43:47;;;;;;;;;;;;;;;20.06;55.01;101288.44;5058003;28;19925;-77
2022/08/12 11:46:13;;;;;;;;;;;;;;;20.26;43.05;101268.03;5062650;28;19924;-77
2022/08/12 11:48:38;;;;;;;;;;;;;;;20.59;41.70;101264.53;5060343;28;20376;-77
2022/08/12 11:51:05;;;;;;;;;;;;;;;20.07;46.92;101264.66;5060792;28;19932;-77
2022/08/12 11:53:30;;;;;;;;;;;;;;;20.42;53.10;101277.78;5040997;28;19931;-77
2022/08/12 11:55:56;;;;;;;;;;;;;;;19.89;57.17;101275.28;5061168;28;19928;-77
2022/08/12 11:58:21;;;;;;;;;;;;;;;19.86;57.00;101275.44;5055507;28;19921;-77
2022/08/12 12:00:46;;;;;;;;;;;;;;;20.23;42.72;101259.47;5056888;28;19920;-77
2022/08/12 12:03:12;;;;;;;;;;;;;;;19.89;57.15;101272.66;5058628;28;20381;-77
2022/08/12 12:05:37;;;;;;;;;;;;;;;20.04;56.37;101270.09;5067399;28;20285;-77
2022/08/12 12:08:02;;;;;;;;;;;;;;;20.10;42.65;101255.75;5065929;28;19924;-77
2022/08/12 12:10:27;;;;;;;;;;;;;;;20.50;40.84;101252.66;5037676;28;19960;-77
2022/08/12 12:12:53;;;;;;;;;;;;;;;20.29;48.34;101259.97;5065945;28;20859;-77
2022/08/12 12:15:18;;;;;;;;;;;;;;;20.12;55.90;101252.09;5042215;28;20358;-76
2022/08/12 12:17:44;;;;;;;;;;;;;;;19.88;57.81;101263.88;5065339;28;20023;-76
2022/08/12 12:20:10;;;;;;;;;;;;;;;19.92;57.93;101254.03;5062423;28;19916;-76
2022/08/12 12:22:36;;;;;;;;;;;;;;;20.35;39.86;101227.13;5066597;28;20618;-77
2022/08/12 12:25:02;;;;;;;;;;;;;;;20.02;52.51;101235.03;5039330;28;19932;-77
2022/08/12 12:27:27;;;;;;;;;;;;;;;20.02;52.22;101226.25;5060865;28;19920;-77
2022/08/12 12:29:55;;;;;;;;;;;;;;;20.13;47.13;101218.66;5061594;28;19928;-77
2022/08/12 12:32:20;;;;;;;;;;;;;;;19.99;56.88;101222.00;5063412;28;20374;-77
2022/08/12 12:34:45;;;;;;;;;;;;;;;20.37;54.85;101225.25;5066130;28;19924;-77
2022/08/12 12:37:11;;;;;;;;;;;;;;;20.14;55.66;101223.00;5052875;28;20028;-77
2022/08/12 12:39:37;;;;;;;;;;;;;;;20.28;53.74;101221.34;5059578;28;19940;-77
2022/08/12 12:42:02;;;;;;;;;;;;;;;20.40;53.87;101218.97;5059800;28;20377;-77
2022/08/12 12:44:28;;;;;;;;;;;;;;;20.38;47.26;101213.78;5063662;28;20304;-76
2022/08/12 12:46:53;;;;;;;;;;;;;;;20.55;48.91;101199.66;5058482;28;20328;-77
2022/08/12 12:49:18;;;;;;;;;;;;;;;20.50;42.12;101209.63;5061641;28;19928;-77
2022/08/12 12:51:44;;;;;;;;;;;;;;;21.25;34.04;101188.56;5054731;28;19928;-77
2022/08/12 12:54:09;;;;;;;;;;;;;;;20.76;35.97;101191.38;5059482;28;19917;-76
2022/08/12 12:56:40;;;;;;;;;;;;;;;20.33;48.40;101195.53;5059239;28;20594;-76
2022/08/12 12:59:07;;;;;;;;;;;;;;;20.19;52.02;101189.31;5047187;28;20143;-76
2022/08/12 13:01:32;;;;;;;;;;;;;;;20.15;49.73;101185.13;5062769;28;19956;-76
2022/08/12 13:03:58;;;;;;;;;;;;;;;20.32;43.11;101183.28;5059740;28;19963;-77
2022/08/12 13:06:24;;;;;;;;;;;;;;;20.22;55.06;101179.47;5060758;28;19920;-76
2022/08/12 13:08:53;;;;;;;;;;;;;;;19.94;57.60;101181.81;5059985;28;19921;-76
2022/08/12 13:11:21;;;;;;;;;;;;;;;20.04;50.92;101177.78;5060622;28;19925;-76
2022/08/12 13:13:48;;;;;;;;;;;;;;;20.41;54.66;101181.09;5049816;28;20278;-76
2022/08/12 13:16:19;;;;;;;;;;;;;;;20.12;45.88;101170.31;5058382;28;19924;-76
2022/08/12 13:18:45;;;;;;;;;;;;;;;20.03;57.43;101181.34;5060281;28;19988;-77
2022/08/12 13:21:10;;;;;;;;;;;;;;;20.10;57.04;101176.63;5062014;28;19978;-76
2022/08/12 13:23:36;;;;;;;;;;;;;;;19.91;58.06;101166.16;5056596;28;20002;-76
2022/08/12 13:26:02;;;;;;;;;;;;;;;19.88;58.38;101166.34;5055321;28;19935;-76
2022/08/12 13:28:29;;;;;;;;;;;;;;;20.34;45.92;101172.66;5060622;28;19939;-76
2022/08/12 13:30:58;;;;;;;;;;;;;;;20.51;45.23;101158.50;5061111;28;19928;-77
2022/08/12 13:33:26;;;;;;;;;;;;;;;20.05;57.32;101166.31;5039683;28;19932;-76
2022/08/12 13:35:53;;;;;;;;;;;;;;;20.44;42.74;101154.53;5059344;28;19921;-76
2022/08/12 13:38:18;;;;;;;;;;;;;;;20.60;49.52;101152.72;5055073;28;19925;-76
2022/08/12 13:40:44;;;;;;;;;;;;;;;20.89;49.82;101151.94;5059603;28;19920;-76
2022/08/12 13:43:14;;;;;;;;;;;;;;;20.11;56.78;101158.09;5061974;28;20299;-77
2022/08/12 13:45:40;;;;;;;;;;;;;;;20.14;56.88;101152.66;5058461;28;19968;-77
2022/08/12 13:48:05;;;;;;;;;;;;;;;20.02;58.15;101163.84;5059200;28;20013;-76
2022/08/12 13:50:35;;;;;;;;;;;;;;;20.28;57.49;101162.44;5062888;28;19921;-76
2022/08/12 13:53:14;;;;;;;;;;;;;;;20.53;57.16;101151.38;5058557;28;19930;-76
2022/08/12 13:55:44;;;;;;;;;;;;;;;20.92;56.08;101137.72;5060102;28;19927;-76
2022/08/12 13:58:10;;;;;;;;;;;;;;;21.00;55.68;101143.41;5060211;28;19931;-77
2022/08/12 14:00:36;;;;;;;;;;;;;;;20.98;55.67;101148.75;5059285;28;19986;-77
2022/08/12 14:03:01;;;;;;;;;;;;;;;21.32;51.04;101140.56;5059601;28;20393;-77
2022/08/12 14:05:27;;;;;;;;;;;;;;;21.00;44.38;101131.06;5054101;28;19925;-77
2022/08/12 14:07:57;;;;;;;;;;;;;;;20.63;55.99;101144.63;5059636;28;20377;-77
2022/08/12 14:10:36;;;;;;;;;;;;;;;20.47;57.23;101144.63;5056100;28;19950;-77
2022/08/12 14:13:04;;;;;;;;;;;;;;;20.26;57.96;101138.75;5066965;28;20292;-77
2022/08/12 14:15:30;;;;;;;;;;;;;;;20.35;57.08;101135.63;5061129;28;19924;-77
2022/08/12 14:18:03;;;;;;;;;;;;;;;20.37;57.48;101140.81;5061297;28;20281;-76